Aérodrome de Castelnaudary-Villeneuve

LFMW · Linguadoca-Rossiglione-Midi-Pirenei, Francia

2 ottobre 2022

Tempo Codice Tempo metereologico Temp. Vista Base nuvolosa Vento METAR/SPECI
21:00
V
14 °C 10 km+ 3.300 ft 310° 310° 3 kt METAR LFCR 021900Z AUTO 31003KT 9999 OVC033 14/12 Q1026 NOSIG
20:30
V
14 °C 10 km+ - 300° 300° 4 kt METAR LFCR 021830Z AUTO 30004KT 9999 FEW036 14/12 Q1026 NOSIG
20:00
V
14 °C 10 km+ - 280° 280° 4 kt METAR LFCR 021800Z AUTO 28004KT CAVOK 14/12 Q1026 NOSIG
19:30
V
15 °C 10 km+ - 300° 300° 5 kt METAR LFCR 021730Z AUTO 30005KT CAVOK 15/12 Q1026 NOSIG
19:00
V
17 °C 10 km+ - 320° 320° 4 kt METAR LFCR 021700Z AUTO 32004KT CAVOK 17/12 Q1026 NOSIG
18:30
V
18 °C 10 km+ - 350° 350° 6 kt METAR LFCR 021630Z AUTO 35006KT 320V020 9999 FEW025 18/13 Q1026 NOSIG
18:00
V
18 °C 10 km+ - 350° 350° 8 kt METAR LFCR 021600Z AUTO 35008KT 320V020 9999 FEW025 18/13 Q1026 NOSIG
17:30
V
19 °C 10 km+ - 320° 320° 11 kt METAR LFCR 021530Z AUTO 32011KT CAVOK 19/13 Q1026 NOSIG
17:00
V
19 °C 10 km+ 3.400 ft 340° 340° 10 kt METAR LFCR 021500Z AUTO 34010KT 300V010 9999 BKN034 19/13 Q1026 NOSIG
16:30
M
20 °C 10 km+ 2.900 ft 330° 330° 9 kt METAR LFCR 021430Z AUTO 33009KT 300V010 9999 BKN029 BKN034 20/13 Q1026 NOSIG
16:00
M
20 °C 10 km+ 2.800 ft 330° 330° 8 kt METAR LFCR 021400Z AUTO 33008KT 290V010 9999 BKN028 BKN034 20/13 Q1027 NOSIG
15:30
V
20 °C 10 km+ - 300° 300° 11 kt METAR LFCR 021330Z AUTO 30011KT 270V340 9999 FEW029 20/14 Q1027 NOSIG
15:00
M
19 °C 10 km+ 2.500 ft 300° 300° 7 kt METAR LFCR 021300Z AUTO 30007KT 260V340 9999 BKN025 BKN033 19/13 Q1027 NOSIG
14:30
M
18 °C 10 km+ 2.400 ft 300° 300° 7 kt METAR LFCR 021230Z AUTO 30007KT 270V340 9999 BKN024 BKN029 18/13 Q1027 NOSIG
14:00
V
18 °C 10 km+ - 300° 300° 8 kt METAR LFCR 021200Z AUTO 30008KT 280V340 9999 SCT020 18/13 Q1028 NOSIG
13:30
M
17 °C 10 km+ 2.000 ft 330° 330° 5 kt METAR LFCR 021130Z AUTO 33005KT 290V010 9999 OVC020 17/13 Q1028 NOSIG
13:00
M
17 °C 10 km+ 2.700 ft Var Var 3 kt METAR LFCR 021100Z AUTO VRB03KT 9999 FEW018 OVC027 17/13 Q1028 NOSIG
12:30
M
15 °C 10 km+ 1.700 ft 320° 320° 7 kt METAR LFCR 021030Z AUTO 32007KT 9999 OVC017 15/13 Q1029 NOSIG
12:00
M
16 °C 10 km+ 1.600 ft 280° 280° 8 kt METAR LFCR 021000Z AUTO 28008KT 260V320 9999 BKN016 OVC023 16/13 Q1029 NOSIG
11:30
M
16 °C 10 km+ 1.600 ft 260° 260° 6 kt METAR LFCR 020930Z AUTO 26006KT 9999 OVC016 16/13 Q1028 NOSIG
11:00
M
16 °C 10 km+ 2.000 ft 300° 300° 5 kt METAR LFCR 020900Z AUTO 30005KT 260V330 9999 OVC020 16/13 Q1029 NOSIG
10:30
M
15 °C 10 km+ 2.100 ft 320° 320° 5 kt METAR LFCR 020830Z AUTO 32005KT 280V350 9999 FEW011 BKN021 15/13 Q1028 NOSIG
10:00
M
15 °C 10 km+ 1.900 ft 320° 320° 5 kt METAR LFCR 020800Z AUTO 32005KT 9999 FEW010 BKN019 15/13 Q1028 TEMPO BKN008
09:30
M
14 °C 10 km+ 1.900 ft 300° 300° 6 kt METAR LFCR 020730Z AUTO 30006KT 9999 BKN019 14/13 Q1028 TEMPO BKN008
09:00
V
14 °C 10 km+ - 280° 280° 5 kt METAR LFCR 020700Z AUTO 28005KT 9999 FEW012 14/13 Q1028 TEMPO 4000 -DZ BKN008
08:30
M
14 °C 10 km+ 2.400 ft 300° 300° 5 kt METAR LFCR 020630Z AUTO 30005KT 9999 FEW017 OVC024 14/13 Q1028 TEMPO 4000 -DZ BECMG BKN006 BKN014
08:00
M
14 °C 10 km+ 1.000 ft 310° 310° 5 kt METAR LFCR 020600Z AUTO 31005KT 9999 SCT004 BKN010 OVC014 14/13 Q1028 TEMPO 4000 -DZ BKN004
07:30
L
14 °C 7 km 400 ft 280° 280° 5 kt METAR LFCR 020530Z AUTO 28005KT 7000 BKN004 OVC011 14/14 Q1027 TEMPO 4000 -DZ
07:00
I
14 °C 3,7 km 800 ft 290° 290° 2 kt METAR LFCR 020500Z AUTO 29002KT 3700 -DZ BR SCT004 BKN008 OVC015 14/14 Q1027 TEMPO BKN004
06:30
M
14 °C 10 km+ 1.400 ft 290° 290° 4 kt METAR LFCR 020430Z AUTO 29004KT 9999 SCT005 SCT010 OVC014 14/14 Q1027 TEMPO 4000 -DZ BKN004
06:00
I
14 °C 9 km 500 ft 290° 290° 5 kt METAR LFCR 020400Z AUTO 29005KT 9000 -DZ BKN005 BKN012 OVC017 14/14 Q1027 TEMPO 4000 -DZ
05:30
M
14 °C 10 km+ 1.200 ft 300° 300° 5 kt METAR LFCR 020330Z AUTO 30005KT 9999 BKN012 OVC018 14/14 Q1027 TEMPO 0300 FG VV///
05:00
M
14 °C 10 km+ 1.600 ft 280° 280° 6 kt METAR LFCR 020300Z AUTO 28006KT 9999 FEW005 OVC016 14/14 Q1027 TEMPO 0300 FG VV///
04:30
L
14 °C 6 km 400 ft 250° 250° 4 kt METAR LFCR 020230Z AUTO 25004KT 6000 BKN004 OVC012 14/14 Q1027 TEMPO 0300 FG VV///
04:00
L
14 °C 4,6 km 400 ft 250° 250° 5 kt METAR LFCR 020200Z AUTO 25005KT 4600 -DZ BR BKN004 OVC010 14/14 Q1027 NOSIG
03:30
I
14 °C 6 km 600 ft 240° 240° 4 kt METAR LFCR 020130Z AUTO 24004KT 6000 BKN006 OVC011 14/14 Q1027 BECMG 3000 BR OVC003
03:00
I
15 °C 9 km 600 ft 250° 250° 3 kt METAR LFCR 020100Z AUTO 25003KT 9000 OVC006 15/14 Q1027 BECMG 3000 BR OVC003
02:30
I
15 °C 10 km+ 500 ft 270° 270° 4 kt METAR LFCR 020030Z AUTO 27004KT 9999 OVC005 15/14 Q1028 BECMG 3000 BR
02:00
I
15 °C 10 km+ 600 ft 240° 240° 4 kt METAR LFCR 020000Z AUTO 24004KT 9999 BKN006 BKN011 OVC046 15/15 Q1028 TEMPO 4000 -RADZ BKN004
01:30
I
15 °C 10 km+ 700 ft 240° 240° 6 kt METAR LFCR 012330Z AUTO 24006KT 9999 OVC007 15/14 Q1028 TEMPO 4000 -RADZ BKN004
01:00
I
15 °C 10 km+ 600 ft 240° 240° 7 kt METAR LFCR 012300Z AUTO 24007KT 9999 OVC006 15/15 Q1028 TEMPO 0500 -DZ FG VV///
00:30
I
15 °C 10 km+ 600 ft 260° 260° 8 kt METAR LFCR 012230Z AUTO 26008KT 9999 BKN006 OVC010 15/14 Q1028 TEMPO 0500 -DZ FG VV///
00:00
I
15 °C 10 km+ 500 ft 250° 250° 8 kt METAR LFCR 012200Z AUTO 25008KT 9999 OVC005 15/15 Q1028 TEMPO 0500 -DZ FG VV///

1 ottobre 2022

Tempo Codice Tempo metereologico Temp. Vista Base nuvolosa Vento METAR/SPECI
23:30
I
15 °C 10 km+ 500 ft 250° 250° 9 kt METAR LFCR 012130Z AUTO 25009KT 9999 OVC005 15/15 Q1028 TEMPO 0500 -DZ FG VV///
23:00
I
15 °C 10 km+ 600 ft 260° 260° 9 kt METAR LFCR 012100Z AUTO 26009KT 9999 OVC006 15/15 Q1028 TEMPO 0500 -DZ FG VV///
22:30
I
15 °C 10 km+ 600 ft 260° 260° 12 kt METAR LFCR 012030Z AUTO 26012KT 9999 OVC006 15/15 Q1027 TEMPO 0500 -DZ FG VV///
22:00
I
15 °C 10 km+ 600 ft 260° 260° 9 kt METAR LFCR 012000Z AUTO 26009KT 9999 OVC006 15/15 Q1027 TEMPO 0500 -DZ FG VV///
21:30
L
15 °C 10 km+ 400 ft 260° 260° 9 kt METAR LFCR 011930Z AUTO 26009KT 9999 OVC004 15/15 Q1027 TEMPO 0500 -DZ FG VV///
21:00
L
15 °C 8 km 400 ft 260° 260° 10 kt METAR LFCR 011900Z AUTO 26010KT 8000 BKN004 OVC008 15/15 Q1026 TEMPO 2000 -RADZ
20:30
I
15 °C 7 km 600 ft 250° 250° 10 kt METAR LFCR 011830Z AUTO 25010KT 7000 BKN006 OVC010 15/15 Q1026 TEMPO 2000 -RADZ OVC003
20:00
I
15 °C 6 km 600 ft 250° 250° 9 kt METAR LFCR 011800Z AUTO 25009KT 6000 BKN006 OVC014 15/15 Q1026 TEMPO 2000 -RADZ OVC003
19:30
I
15 °C 10 km+ 900 ft 250° 250° 9 kt METAR LFCR 011730Z AUTO 25009KT 9999 BKN009 OVC015 15/15 Q1025 TEMPO 2000 -RADZ OVC003
19:00
L
15 °C 6 km 400 ft 250° 250° 10 kt METAR LFCR 011700Z AUTO 25010KT 6000 -RADZ OVC004 15/15 Q1025 TEMPO 2000 -RADZ
18:30
I
15 °C 7 km 500 ft 250° 250° 12 kt METAR LFCR 011630Z AUTO 25012KT 7000 -RADZ BKN005 OVC009 15/15 Q1025 TEMPO 2000 -RADZ
18:00
L
15 °C 5 km 400 ft 250° 250° 11 kt METAR LFCR 011600Z AUTO 25011KT 5000 -DZ BR BKN004 OVC010 15/15 Q1024 TEMPO 2000 -RADZ
17:30
L
15 °C 5 km 400 ft 250° 250° 9 kt METAR LFCR 011530Z AUTO 25009KT 5000 -DZ BR BKN004 OVC009 15/15 Q1024 TEMPO 2000 -RADZ
17:00
I
15 °C 6 km 500 ft 260° 260° 10 kt METAR LFCR 011500Z AUTO 26010KT 6000 -DZ BKN005 OVC009 15/14 Q1024 TEMPO 2000 -RADZ
16:30
M
15 °C 10 km+ 1.200 ft 270° 270° 11 kt METAR LFCR 011430Z AUTO 27011KT 9999 BKN012 OVC019 15/14 Q1024 TEMPO 2000 -RADZ OVC003
16:00
I
15 °C 4,3 km 1.500 ft 270° 270° 12 kt METAR LFCR 011400Z AUTO 27012KT 9999 4300 OVC015 15/14 Q1024 TEMPO 2000 -RADZ OVC003
15:30
M
15 °C 10 km+ 1.500 ft 260° 260° 9 kt METAR LFCR 011330Z AUTO 26009KT 9999 OVC015 15/13 Q1024 TEMPO 2000 -RADZ OVC003
15:00
M
14 °C 10 km+ 1.000 ft 260° 260° 8 kt METAR LFCR 011300Z AUTO 26008KT 9999 OVC010 14/13 Q1024 TEMPO 2000 -RADZ OVC003
14:30
I
14 °C 10 km+ 700 ft 260° 260° 11 kt METAR LFCR 011230Z AUTO 26011KT 9999 OVC007 14/13 Q1024 TEMPO 2000 -RADZ OVC003
14:00
I
13 °C 10 km+ 600 ft 250° 250° 12 kt METAR LFCR 011200Z AUTO 25012KT 9999 OVC006 13/13 Q1024 TEMPO 2000 -RADZ OVC003
13:30
I
13 °C 10 km+ 600 ft 250° 250° 12 kt METAR LFCR 011130Z AUTO 25012KT 9999 OVC006 13/13 Q1024 TEMPO 3000 -RA BKN003
13:00
I
13 °C 4,3 km 500 ft 250° 250° 8 kt METAR LFCR 011100Z AUTO 25008KT 4300 DZ BR OVC005 13/13 Q1023 TEMPO NSW
12:30
L
12 °C 5 km 400 ft 210° 210° 5 kt METAR LFCR 011030Z AUTO 21005KT 180V240 5000 -RADZ BR OVC004 12/12 Q1023 TEMPO BKN005
12:00
L
12 °C 2 km 400 ft 190° 190° 4 kt METAR LFCR 011000Z AUTO 19004KT 2000 -RA BR OVC004 12/11 Q1023 TEMPO 3000 -RA BKN005 BECMG 25010KT
11:30
I
11 °C 7 km 900 ft 230° 230° 7 kt METAR LFCR 010930Z AUTO 23007KT 7000 -RA BKN009 BKN014 OVC020 11/11 Q1023 TEMPO 3000 -RA
11:00
I
11 °C 10 km+ 500 ft 230° 230° 8 kt METAR LFCR 010900Z AUTO 23008KT 9999 -DZ BKN005 OVC025 11/11 Q1023 TEMPO 3000 -RA
10:30
I
10 °C 4,3 km 500 ft 230° 230° 9 kt METAR LFCR 010830Z AUTO 23009KT 4300 -RA BR OVC005 10/10 Q1023 NOSIG
10:00
I
10 °C 3,3 km 700 ft 220° 220° 10 kt METAR LFCR 010800Z AUTO 22010KT 3300 -DZ BR OVC007 10/10 Q1022 TEMPO 9999 NSW BKN011 BKN035
09:30
I
10 °C 10 km+ 700 ft 210° 210° 7 kt METAR LFCR 010730Z AUTO 21007KT 9999 OVC007 10/10 Q1022 TEMPO 3000 -RA BKN020 BKN035
09:00
M
10 °C 10 km+ 1.100 ft 180° 180° 4 kt METAR LFCR 010700Z AUTO 18004KT 9999 BKN011 OVC016 10/09 Q1022 BECMG BKN020 BKN035
08:30
M
9 °C 10 km+ 2.600 ft 140° 140° 4 kt METAR LFCR 010630Z AUTO 14004KT 9999 FEW016 BKN026 OVC037 09/09 Q1022 NOSIG
08:00
M
9 °C 10 km+ 2.600 ft 080° 080° 3 kt METAR LFCR 010600Z AUTO 08003KT 9999 BKN026 BKN047 OVC064 09/08 Q1021 NOSIG
07:30
M
9 °C 10 km+ 2.800 ft Var Var 3 kt METAR LFCR 010530Z AUTO VRB03KT 9999 BKN028 OVC036 09/08 Q1021 BECMG BKN010
07:00
M
9 °C 10 km+ 2.300 ft 180° 180° 3 kt METAR LFCR 010500Z AUTO 18003KT 9999 FEW011 BKN023 OVC031 09/08 Q1021 NOSIG
06:30
M
9 °C 10 km+ 2.200 ft 220° 220° 3 kt METAR LFCR 010430Z AUTO 22003KT 9999 -RA BKN022 OVC034 09/08 Q1021 NOSIG
06:00
V
8 °C 10 km+ 9.600 ft 220° 220° 3 kt METAR LFCR 010400Z AUTO 22003KT 9999 FEW039 OVC096 08/07 Q1020 NOSIG
05:30
V
8 °C 10 km+ - 210° 210° 3 kt METAR LFCR 010330Z AUTO 21003KT CAVOK 08/07 Q1020 NOSIG
05:00
V
7 °C 10 km+ 4.000 ft 230° 230° 3 kt METAR LFCR 010300Z AUTO 23003KT 9999 BKN040 OVC088 07/06 Q1020 NOSIG
04:30
V
7 °C 10 km+ - 230° 230° 3 kt METAR LFCR 010230Z AUTO 23003KT CAVOK 07/06 Q1020 NOSIG
04:00
V
7 °C 10 km+ - 210° 210° 3 kt METAR LFCR 010200Z AUTO 21003KT CAVOK 07/06 Q1020 TEMPO 4000 BR
03:30
V
7 °C 10 km+ - 220° 220° 3 kt METAR LFCR 010130Z AUTO 22003KT CAVOK 07/05 Q1020 TEMPO 4000 BR
03:00
V
6 °C 10 km+ - Var Var 3 kt METAR LFCR 010100Z AUTO VRB03KT CAVOK 06/05 Q1019 TEMPO 4000 BR
02:30
V
6 °C 10 km+ - Var Var 3 kt METAR LFCR 010030Z AUTO VRB03KT CAVOK 06/05 Q1020 TEMPO 4000 BR
02:00
V
6 °C 10 km+ - 230° 230° 3 kt METAR LFCR 010000Z AUTO 23003KT CAVOK 06/05 Q1019 TEMPO 4000 BR
01:30
V
6 °C 10 km+ - 200° 200° 3 kt METAR LFCR 302330Z AUTO 20003KT CAVOK 06/05 Q1019 TEMPO 4000 BR
01:00
V
7 °C 10 km+ - Var Var 1 kt METAR LFCR 302300Z AUTO VRB01KT 9999 FEW041 07/05 Q1019 TEMPO 4000 BR
00:30
V
8 °C 10 km+ 4.000 ft Var 000° 0 kt METAR LFCR 302230Z AUTO 00000KT 9999 BKN040 08/06 Q1019 TEMPO 4000 BR
00:00
V
8 °C 10 km+ - 270° 270° 3 kt METAR LFCR 302200Z AUTO 27003KT CAVOK 08/06 Q1019 TEMPO 4000 BR

30 settembre 2022

Tempo Codice Tempo metereologico Temp. Vista Base nuvolosa Vento METAR/SPECI
23:30
V
8 °C 10 km+ - Var Var 2 kt METAR LFCR 302130Z AUTO VRB02KT CAVOK 08/05 Q1019 TEMPO 4000 BR
23:00
V
9 °C 10 km+ - 230° 230° 1 kt METAR LFCR 302100Z AUTO 23001KT CAVOK 09/06 Q1018 TEMPO 4000 BR
22:30
V
9 °C 10 km+ - Var Var 1 kt METAR LFCR 302030Z AUTO VRB01KT CAVOK 09/06 Q1018 TEMPO 4000 BR
22:00
V
9 °C 10 km+ - 240° 240° 4 kt METAR LFCR 302000Z AUTO 24004KT CAVOK 09/06 Q1018 NOSIG
21:30
V
9 °C 10 km+ - 250° 250° 5 kt METAR LFCR 301930Z AUTO 25005KT 9999 FEW043 09/06 Q1018 NOSIG
21:00
V
10 °C 10 km+ - 270° 270° 7 kt METAR LFCR 301900Z AUTO 27007KT 9999 FEW043 10/06 Q1017 NOSIG
20:30
V
10 °C 10 km+ - 290° 290° 7 kt METAR LFCR 301830Z AUTO 29007KT CAVOK 10/06 Q1017 NOSIG
20:00
V
11 °C 10 km+ - 300° 300° 9 kt METAR LFCR 301800Z AUTO 30009KT CAVOK 11/06 Q1016 NOSIG
19:30
V
12 °C 10 km+ - 300° 300° 10 kt METAR LFCR 301730Z AUTO 30010KT CAVOK 12/06 Q1016 NOSIG
19:00
V
12 °C 10 km+ - 290° 290° 12 kt METAR LFCR 301700Z AUTO 29012KT CAVOK 12/06 Q1016 NOSIG
18:30
V
14 °C 10 km+ - 300° 300° 14 kt METAR LFCR 301630Z AUTO 30014KT CAVOK 14/06 Q1015 NOSIG
18:00
V
14 °C 10 km+ - 290° 290° 14 kt METAR LFCR 301600Z AUTO 29014KT 9999 FEW039 14/05 Q1015 NOSIG
17:30
V
14 °C 10 km+ 5.800 ft 290° 290° 13 kt METAR LFCR 301530Z AUTO 29013KT 9999 SCT042 OVC058 14/06 Q1014 NOSIG
17:00
V
14 °C 10 km+ 5.600 ft 300° 300° 10 kt METAR LFCR 301500Z AUTO 30010KT 270V330 9999 FEW043 BKN056 14/05 Q1014 NOSIG
Dati più vecchi

Noi e le terze parti seguiamo il tuo comportamento in internet sul nostro sito web con i cookie. Se continui, riteniamo che tu sia d'accordo con la nostra politica sui cookie. Per saperne di più